Habib Bourguiba, Tunisia

12:55 PM CET on October 20, 2014 (GMT +0100)
Habib Bourguiba | Change Station
CLOSE
Current Station
Airport
Location: Habib Bourguiba,
Elevation: 7 ft
Nearby Weather Stations

Elev 7 ft 35.76 °N, 10.75 °E | Updated 25 minutes ago

Scattered Clouds
Scattered Clouds
79 °F
Feels Like 79 °F
N
8
Wind Variable Wind from North

Today
High -- | Low -- °F
--% Chance of Precip.
Yesterday
High -- | Low -- °F
Precip. -- in
6:27 AM 5:35 PM
Waning Crescent, 11% visible
Pressure 30.18 in
Visibility 6.2 miles
Clouds Scattered Clouds 2000 ft
Dew Point 70 °F
Humidity 74%
Rainfall 0.00 in
Snow Depth Not available.
UV 5 out of 12
Pollen Not available.
Air Quality Not available.
Flu Activity Not available.
METAR DTMB 201130Z 35007KT 330V030 9999 SCT020 26/21 Q1022 NOSIG

More Conditions Fewer Conditions

Pressure 30.18 in
Visibility 6.2 miles
Clouds Scattered Clouds 2000 ft
Dew Point 70 °F
Humidity 74%
Rainfall 0.00 in
Snow Depth Not available.
UV 5 out of 12
Pollen Not available.
Air Quality Not available.
Flu Activity Not available.
METAR DTMB 201130Z 35007KT 330V030 9999 SCT020 26/21 Q1022 NOSIG

More Conditions Fewer Conditions

10-Day Weather Forecast

Almanac

Astronomy

Oct. 20, 2014 Rise Set
Actual Time 6:27 AM CET 5:35 PM CET
Civil Twilight 6:01 AM CET 6:01 PM CET
Nautical Twilight 5:32 AM CET 6:30 PM CET
Astronomical Twilight 5:02 AM CET 7:00 PM CET
Moon 3:07 AM CET 3:43 PM CET
Length of Visible Light 11h 59m
Length of Day
11h 07m
Tomorrow will be 2m 7s shorter.
Waning Crescent, 11% of the Moon is Illuminated
Today
Waning Crescent
Oct 23
New
Oct 30
First Quarter
Nov 6
Full
Nov 14
Last Quarter

Yesterday's Extremes

Country Highs Country Lows

Community

WunderPhotos

Upload Photos

1,763,341 photos uploaded!

Nearby

Snow Depth

Not available.

Earthquake Activity

City Distance Mag. Time & Date
No recent earthquake activity has been reported nearby.
Minimum magnitude displayed is 2.5.

Coastal Water Temperatures

Place Temperature
No Stations Reporting

Nearby Weather Stations